createdAt,value
2023-03-13T00:01:31.289Z,6.87
2023-03-13T00:03:58.896Z,6.79
2023-03-13T00:06:32.072Z,6.84
2023-03-13T00:09:01.848Z,6.88
2023-03-13T00:11:29.688Z,6.89
2023-03-13T00:13:57.745Z,6.87
2023-03-13T00:16:25.525Z,6.86
2023-03-13T00:18:54.753Z,7.00
2023-03-13T00:21:24.428Z,6.85
2023-03-13T00:23:52.281Z,6.83
2023-03-13T00:26:23.067Z,6.76
2023-03-13T00:28:51.480Z,6.74
2023-03-13T00:31:21.365Z,6.72
2023-03-13T00:33:52.711Z,6.78
2023-03-13T00:36:22.727Z,6.74
2023-03-13T00:38:50.700Z,6.70
2023-03-13T00:41:19.793Z,6.66
2023-03-13T00:43:49.895Z,6.59
2023-03-13T00:46:21.186Z,6.63
2023-03-13T00:48:49.321Z,6.65
2023-03-13T00:51:18.975Z,6.63
2023-03-13T00:53:47.424Z,6.68
2023-03-13T00:56:16.513Z,6.64
2023-03-13T00:58:45.912Z,6.72
2023-03-13T01:01:17.761Z,6.74
2023-03-13T01:03:47.898Z,6.76
2023-03-13T01:06:19.330Z,6.81
2023-03-13T01:08:47.600Z,6.84
2023-03-13T01:11:17.264Z,6.87
2023-03-13T01:13:46.653Z,6.90
2023-03-13T01:16:17.417Z,6.94
2023-03-13T01:18:47.516Z,6.96
2023-03-13T01:21:16.642Z,6.94
2023-03-13T01:23:44.207Z,7.04
2023-03-13T01:26:11.842Z,7.00
2023-03-13T01:28:39.507Z,7.00
2023-03-13T01:31:17.654Z,6.99
2023-03-13T01:33:46.677Z,6.99
2023-03-13T01:36:17.184Z,7.07
2023-03-13T01:38:44.860Z,7.20
2023-03-13T01:41:13.549Z,7.14
2023-03-13T01:43:43.984Z,7.19
2023-03-13T01:46:17.746Z,7.18
2023-03-13T01:49:09.185Z,7.21
2023-03-13T01:51:46.629Z,7.17
2023-03-13T01:54:17.810Z,7.20
2023-03-13T01:56:50.229Z,7.26
2023-03-13T01:59:23.136Z,7.20
2023-03-13T02:01:57.009Z,7.25
2023-03-13T02:04:27.451Z,7.26
2023-03-13T02:07:06.421Z,7.24
2023-03-13T02:09:36.366Z,7.28
2023-03-13T02:12:08.149Z,7.27
2023-03-13T02:14:38.227Z,7.22
2023-03-13T02:17:08.596Z,7.21
2023-03-13T02:19:41.649Z,7.21
2023-03-13T02:22:20.880Z,7.24
2023-03-13T02:24:57.021Z,7.20
2023-03-13T02:27:27.476Z,7.19
2023-03-13T02:29:55.415Z,7.23
2023-03-13T02:32:23.727Z,7.24
2023-03-13T02:34:55.919Z,7.18
2023-03-13T02:37:26.256Z,7.20
2023-03-13T02:39:55.839Z,7.22
2023-03-13T02:42:24.678Z,7.23
2023-03-13T02:44:53.792Z,7.23
2023-03-13T02:47:23.886Z,7.28
2023-03-13T02:49:52.010Z,7.30
2023-03-13T02:52:24.871Z,7.37
2023-03-13T02:54:57.004Z,7.32
2023-03-13T02:57:24.679Z,7.29
2023-03-13T02:59:53.999Z,7.33
2023-03-13T03:02:22.698Z,7.32
2023-03-13T03:04:50.421Z,7.28
2023-03-13T03:07:18.055Z,7.32
2023-03-13T03:09:45.873Z,7.30
2023-03-13T03:12:18.728Z,7.29
2023-03-13T03:14:46.667Z,7.31
2023-03-13T03:17:16.475Z,7.35
2023-03-13T03:19:44.101Z,7.30
2023-03-13T03:22:12.217Z,7.30
2023-03-13T03:24:39.841Z,7.33
2023-03-13T03:27:07.612Z,7.34
2023-03-13T03:29:41.907Z,7.32
2023-03-13T03:32:09.895Z,7.35
2023-03-13T03:34:39.494Z,7.39
2023-03-13T03:37:08.278Z,7.37
2023-03-13T03:39:36.599Z,7.39
2023-03-13T03:42:05.787Z,7.39
2023-03-13T03:44:33.412Z,7.41
2023-03-13T03:47:01.760Z,7.41
2023-03-13T03:49:34.226Z,7.43
2023-03-13T03:52:03.145Z,7.50
2023-03-13T03:54:36.094Z,7.51
2023-03-13T03:57:04.422Z,7.50
2023-03-13T03:59:32.429Z,7.49
2023-03-13T04:02:05.442Z,7.53
2023-03-13T04:04:34.275Z,7.59
2023-03-13T04:07:10.453Z,7.58
2023-03-13T04:09:39.634Z,7.55
2023-03-13T04:12:09.977Z,7.57
2023-03-13T04:14:42.931Z,7.58
2023-03-13T04:17:12.827Z,7.62
2023-03-13T04:19:40.879Z,7.64
2023-03-13T04:22:09.875Z,7.63
2023-03-13T04:24:40.338Z,7.64
2023-03-13T04:27:09.173Z,7.68
2023-03-13T04:29:36.872Z,7.69
2023-03-13T04:32:23.292Z,7.66
2023-03-13T04:35:03.560Z,7.65
2023-03-13T04:37:45.045Z,7.63
2023-03-13T04:40:27.197Z,7.62
2023-03-13T04:43:11.495Z,7.65
2023-03-13T04:45:47.893Z,7.64
2023-03-13T04:48:24.632Z,7.65
2023-03-13T04:51:11.330Z,7.64
2023-03-13T04:53:54.262Z,7.66
2023-03-13T04:56:44.216Z,7.66
2023-03-13T04:59:32.450Z,7.67
2023-03-13T05:02:00.026Z,7.68
2023-03-13T05:04:40.242Z,7.67
2023-03-13T05:07:26.620Z,7.64
2023-03-13T05:10:14.078Z,7.67
2023-03-13T05:13:04.825Z,7.65
2023-03-13T05:15:52.012Z,7.63
2023-03-13T05:18:39.160Z,7.62
2023-03-13T05:21:22.206Z,7.65
2023-03-13T05:24:01.347Z,7.62
2023-03-13T05:26:59.850Z,7.58
2023-03-13T05:29:42.894Z,7.57
2023-03-13T05:32:26.016Z,7.57
2023-03-13T05:34:56.692Z,7.55
2023-03-13T05:37:41.889Z,7.62
2023-03-13T05:40:18.577Z,7.65
2023-03-13T05:43:09.922Z,7.62
2023-03-13T05:45:47.506Z,7.56
2023-03-13T05:48:31.598Z,7.59
2023-03-13T05:51:07.231Z,7.56
2023-03-13T05:53:47.676Z,7.60
2023-03-13T05:56:48.698Z,7.64
2023-03-13T05:59:42.913Z,7.60
2023-03-13T06:02:36.734Z,7.66
2023-03-13T06:05:07.156Z,7.69
2023-03-13T06:07:34.737Z,7.73
2023-03-13T06:10:02.269Z,7.76
2023-03-13T06:12:30.025Z,7.75
2023-03-13T06:14:58.887Z,7.74
2023-03-13T06:17:46.694Z,7.82
2023-03-13T06:20:14.544Z,7.88
2023-03-13T06:22:42.988Z,7.96
2023-03-13T06:25:11.281Z,8.03
2023-03-13T06:27:38.877Z,8.03
2023-03-13T06:30:10.227Z,8.08
2023-03-13T06:32:37.811Z,8.14
2023-03-13T06:35:06.561Z,8.30
2023-03-13T06:37:34.680Z,8.21
2023-03-13T06:40:02.393Z,8.25
2023-03-13T06:42:29.948Z,8.26
2023-03-13T06:44:57.443Z,8.27
2023-03-13T06:47:26.298Z,8.32
2023-03-13T06:49:53.906Z,8.35
2023-03-13T06:52:26.480Z,8.37
2023-03-13T06:54:58.979Z,8.45
2023-03-13T06:57:26.530Z,8.46
2023-03-13T06:59:54.010Z,8.55
2023-03-13T07:02:21.736Z,8.56
2023-03-13T07:04:50.622Z,8.57
2023-03-13T07:07:30.875Z,8.59
2023-03-13T07:09:59.167Z,8.79
2023-03-13T07:12:26.715Z,8.77
2023-03-13T07:14:54.259Z,8.81
2023-03-13T07:17:22.134Z,8.76
2023-03-13T07:19:51.082Z,8.74
2023-03-13T07:22:18.668Z,8.77
2023-03-13T07:24:46.265Z,8.79
2023-03-13T07:27:14.004Z,8.81
2023-03-13T07:29:41.554Z,8.84
2023-03-13T07:32:09.417Z,8.88
2023-03-13T07:34:37.019Z,8.89
2023-03-13T07:37:05.917Z,8.90
2023-03-13T07:39:33.530Z,8.96
2023-03-13T07:42:01.048Z,8.96
2023-03-13T07:44:28.536Z,8.97
2023-03-13T07:46:56.036Z,9.01
2023-03-13T07:49:23.573Z,9.04
2023-03-13T07:51:51.137Z,9.10
2023-03-13T07:54:19.941Z,9.11
2023-03-13T07:56:47.568Z,9.18
2023-03-13T07:59:15.058Z,9.20
2023-03-13T08:01:42.688Z,9.29
2023-03-13T08:04:14.016Z,9.33
2023-03-13T08:06:42.721Z,9.36
2023-03-13T08:09:11.191Z,9.41
2023-03-13T08:11:41.291Z,9.54
2023-03-13T08:14:09.353Z,9.52
2023-03-13T08:16:37.370Z,9.64
2023-03-13T08:19:06.036Z,9.71
2023-03-13T08:21:35.454Z,9.73
2023-03-13T08:24:05.907Z,9.78
2023-03-13T08:26:34.877Z,9.77
2023-03-13T08:29:06.150Z,9.86
2023-03-13T08:31:35.934Z,9.96
2023-03-13T08:34:03.676Z,10.02
2023-03-13T08:36:33.670Z,10.04
2023-03-13T08:39:04.768Z,10.10
2023-03-13T08:41:35.997Z,10.10
2023-03-13T08:44:05.893Z,10.20
2023-03-13T08:46:35.880Z,10.30
2023-03-13T08:49:05.506Z,10.33
2023-03-13T08:51:33.718Z,10.41
2023-03-13T08:54:02.726Z,10.42
2023-03-13T08:56:31.464Z,10.48
2023-03-13T08:59:00.663Z,10.49
2023-03-13T09:01:31.105Z,10.49
2023-03-13T09:04:03.514Z,10.53
2023-03-13T09:06:31.714Z,10.59
2023-03-13T09:08:59.441Z,10.69
2023-03-13T09:11:27.946Z,10.63
2023-03-13T09:13:59.103Z,10.62
2023-03-13T09:16:30.480Z,10.66
2023-03-13T09:18:59.136Z,10.75
2023-03-13T09:21:28.815Z,10.77
2023-03-13T09:23:56.955Z,10.87
2023-03-13T09:26:25.179Z,10.92
2023-03-13T09:28:53.584Z,10.99
2023-03-13T09:31:23.051Z,11.02
2023-03-13T09:33:52.490Z,11.14
2023-03-13T09:36:22.650Z,11.12
2023-03-13T09:38:51.062Z,11.15
2023-03-13T09:41:25.635Z,11.24
2023-03-13T09:43:59.755Z,11.19
2023-03-13T09:46:34.364Z,11.23
2023-03-13T09:49:06.572Z,11.16
2023-03-13T09:51:38.127Z,11.25
2023-03-13T09:54:09.400Z,11.30
2023-03-13T09:56:41.749Z,11.41
2023-03-13T09:59:19.574Z,11.39
2023-03-13T10:01:49.155Z,11.37
2023-03-13T10:04:29.688Z,11.36
2023-03-13T10:06:57.758Z,11.44
2023-03-13T10:09:29.844Z,11.48
2023-03-13T10:12:04.693Z,11.47
2023-03-13T10:14:39.448Z,11.52
2023-03-13T10:17:16.940Z,11.57
2023-03-13T10:19:48.245Z,11.57
2023-03-13T10:22:20.313Z,11.62
2023-03-13T10:24:55.658Z,11.63
2023-03-13T10:27:23.168Z,11.62
2023-03-13T10:29:50.787Z,11.64
2023-03-13T10:32:20.611Z,11.70
2023-03-13T10:34:58.869Z,11.77
2023-03-13T10:37:28.579Z,11.87
2023-03-13T10:40:14.692Z,11.98
2023-03-13T10:42:45.434Z,12.11
2023-03-13T10:45:18.461Z,12.30
2023-03-13T10:47:46.089Z,12.43
2023-03-13T10:50:23.647Z,12.52
2023-03-13T10:52:52.310Z,12.62
2023-03-13T10:55:21.855Z,12.55
2023-03-13T10:57:58.664Z,12.62
2023-03-13T11:00:33.828Z,12.52
2023-03-13T11:03:03.625Z,12.60
2023-03-13T11:05:37.588Z,12.59
2023-03-13T11:08:34.502Z,12.57
2023-03-13T11:11:03.841Z,12.54
2023-03-13T11:13:38.837Z,12.56
2023-03-13T11:16:19.832Z,12.71
2023-03-13T11:19:20.666Z,12.80
2023-03-13T11:22:06.073Z,13.05
2023-03-13T11:24:47.386Z,13.12
2023-03-13T11:27:24.956Z,13.23
2023-03-13T11:30:02.025Z,13.28
2023-03-13T11:32:34.285Z,13.35
2023-03-13T11:35:08.691Z,13.30
2023-03-13T11:37:40.742Z,13.29
2023-03-13T11:40:21.275Z,13.35
2023-03-13T11:43:24.187Z,13.51
2023-03-13T11:46:09.453Z,13.76
2023-03-13T11:49:14.593Z,13.76
2023-03-13T11:51:54.115Z,13.86
2023-03-13T11:54:42.470Z,13.90
2023-03-13T11:57:14.073Z,14.22
2023-03-13T11:59:48.645Z,14.39
2023-03-13T12:02:22.138Z,14.32
2023-03-13T12:04:55.359Z,14.30
2023-03-13T12:07:29.439Z,14.15
2023-03-13T12:10:02.148Z,14.14
2023-03-13T12:12:41.416Z,14.16
2023-03-13T12:15:20.105Z,14.23
2023-03-13T12:17:52.810Z,14.38
2023-03-13T12:20:26.274Z,14.50
2023-03-13T12:23:01.856Z,14.73
2023-03-13T12:25:38.062Z,14.91
2023-03-13T12:28:24.076Z,15.11
2023-03-13T12:31:00.253Z,14.92
2023-03-13T12:33:33.398Z,14.81
2023-03-13T12:36:09.004Z,14.65
2023-03-13T12:38:41.363Z,14.56
2023-03-13T12:41:20.571Z,14.46
2023-03-13T12:44:07.247Z,14.50
2023-03-13T12:46:44.190Z,14.59
2023-03-13T12:49:51.882Z,14.86
2023-03-13T12:52:51.977Z,15.19
2023-03-13T12:55:36.202Z,15.40
2023-03-13T12:58:14.839Z,15.68
2023-03-13T13:00:46.112Z,15.47
2023-03-13T13:03:25.917Z,15.11
2023-03-13T13:06:10.901Z,14.91
2023-03-13T13:08:41.691Z,15.14
2023-03-13T13:11:47.136Z,15.38
2023-03-13T13:14:54.942Z,15.39
2023-03-13T13:17:31.283Z,15.43
2023-03-13T13:19:58.946Z,15.31
2023-03-13T13:22:52.875Z,15.30
2023-03-13T13:25:30.785Z,15.28
2023-03-13T13:28:13.513Z,15.25
2023-03-13T13:30:41.288Z,15.26
2023-03-13T13:33:41.877Z,15.27
2023-03-13T13:36:29.599Z,15.38
2023-03-13T13:38:59.332Z,15.52
2023-03-13T13:41:38.067Z,15.50
2023-03-13T13:44:26.319Z,15.46
2023-03-13T13:46:56.113Z,15.41
2023-03-13T13:49:31.608Z,15.28
2023-03-13T13:52:34.118Z,15.35
2023-03-13T13:55:02.900Z,15.43
2023-03-13T13:57:33.548Z,15.50
2023-03-13T14:00:16.407Z,15.72
2023-03-13T14:02:50.602Z,15.74
2023-03-13T14:05:23.653Z,15.87
2023-03-13T14:08:05.615Z,15.89
2023-03-13T14:10:37.956Z,15.75
2023-03-13T14:13:13.640Z,15.65
2023-03-13T14:15:44.247Z,15.69
2023-03-13T14:18:15.912Z,15.80
2023-03-13T14:20:56.236Z,15.90
2023-03-13T14:23:33.281Z,15.91
2023-03-13T14:26:10.931Z,15.86
2023-03-13T14:28:41.092Z,15.78
2023-03-13T14:31:09.364Z,15.72
2023-03-13T14:33:37.181Z,15.71
2023-03-13T14:36:06.936Z,15.67
2023-03-13T14:38:34.521Z,15.74
2023-03-13T14:41:02.063Z,15.75
2023-03-13T14:43:34.448Z,15.77
2023-03-13T14:46:13.625Z,15.84
2023-03-13T14:48:41.629Z,15.85
2023-03-13T14:51:15.894Z,15.79
2023-03-13T14:53:55.261Z,15.83
2023-03-13T14:56:32.933Z,15.92
2023-03-13T14:59:17.487Z,16.04
2023-03-13T15:01:45.806Z,16.03
2023-03-13T15:04:13.474Z,16.09
2023-03-13T15:06:42.383Z,16.01
2023-03-13T15:09:22.524Z,16.03
2023-03-13T15:12:00.153Z,16.00
2023-03-13T15:14:37.207Z,15.96
2023-03-13T15:17:09.746Z,15.96
2023-03-13T15:19:37.246Z,15.82
2023-03-13T15:22:06.225Z,15.88
2023-03-13T15:24:33.743Z,15.91
2023-03-13T15:27:01.237Z,15.88
2023-03-13T15:29:28.763Z,15.89
2023-03-13T15:31:56.434Z,16.15
2023-03-13T15:34:25.496Z,16.20
2023-03-13T15:36:53.093Z,16.11
2023-03-13T15:39:23.056Z,16.04
2023-03-13T15:41:50.676Z,15.86
2023-03-13T15:44:18.220Z,15.84
2023-03-13T15:46:46.154Z,15.87
2023-03-13T15:49:13.654Z,16.03
2023-03-13T15:51:41.218Z,16.12
2023-03-13T15:54:08.699Z,16.04
2023-03-13T15:56:38.760Z,15.95
2023-03-13T15:59:12.543Z,15.87
2023-03-13T16:01:40.587Z,15.75
2023-03-13T16:04:08.291Z,15.70
2023-03-13T16:06:36.042Z,15.75
2023-03-13T16:09:06.464Z,15.72
2023-03-13T16:11:34.577Z,15.77
2023-03-13T16:14:03.486Z,15.79
2023-03-13T16:16:37.012Z,15.87
2023-03-13T16:19:04.931Z,15.88
2023-03-13T16:21:34.953Z,15.78
2023-03-13T16:24:02.495Z,15.82
2023-03-13T16:26:32.149Z,15.92
2023-03-13T16:28:59.702Z,16.09
2023-03-13T16:31:30.337Z,15.97
2023-03-13T16:33:58.989Z,15.89
2023-03-13T16:36:30.080Z,15.92
2023-03-13T16:38:58.311Z,15.92
2023-03-13T16:41:27.443Z,15.77
2023-03-13T16:43:55.888Z,15.82
2023-03-13T16:46:27.084Z,15.71
2023-03-13T16:48:58.266Z,15.61
2023-03-13T16:51:28.143Z,15.58
2023-03-13T16:53:57.193Z,15.51
2023-03-13T16:56:27.415Z,15.43
2023-03-13T16:58:56.488Z,15.45
2023-03-13T17:01:25.998Z,15.46
2023-03-13T17:03:54.386Z,15.34
2023-03-13T17:06:25.996Z,15.29
2023-03-13T17:08:54.016Z,15.33
2023-03-13T17:11:23.012Z,15.19
2023-03-13T17:13:53.400Z,15.20
2023-03-13T17:16:24.254Z,15.14
2023-03-13T17:18:53.735Z,15.10
2023-03-13T17:21:24.659Z,15.14
2023-03-13T17:23:53.322Z,15.07
2023-03-13T17:26:24.042Z,15.01
2023-03-13T17:28:53.589Z,14.95
2023-03-13T17:31:22.526Z,14.80
2023-03-13T17:33:50.791Z,14.85
2023-03-13T17:36:20.583Z,14.84
2023-03-13T17:38:52.172Z,14.80
2023-03-13T17:41:23.355Z,14.79
2023-03-13T17:43:51.165Z,14.79
2023-03-13T17:46:20.790Z,14.77
2023-03-13T17:48:49.936Z,14.65
2023-03-13T17:51:20.323Z,14.65
2023-03-13T17:53:49.991Z,14.64
2023-03-13T17:56:23.633Z,14.66
2023-03-13T17:58:54.326Z,14.69
2023-03-13T18:01:23.248Z,14.60
2023-03-13T18:03:51.220Z,14.50
2023-03-13T18:06:22.042Z,14.52
2023-03-13T18:08:52.337Z,14.44
2023-03-13T18:11:23.289Z,14.33
2023-03-13T18:13:51.399Z,14.24
2023-03-13T18:16:23.900Z,14.21
2023-03-13T18:18:51.766Z,14.06
2023-03-13T18:21:19.434Z,14.06
2023-03-13T18:23:46.974Z,13.93
2023-03-13T18:26:23.011Z,13.78
2023-03-13T18:28:51.230Z,13.70
2023-03-13T18:31:19.176Z,13.66
2023-03-13T18:33:47.896Z,13.45
2023-03-13T18:36:18.681Z,13.41
2023-03-13T18:38:46.739Z,13.20
2023-03-13T18:41:15.347Z,13.12
2023-03-13T18:43:44.645Z,13.07
2023-03-13T18:46:20.237Z,13.13
2023-03-13T18:48:48.028Z,13.08
2023-03-13T18:51:16.655Z,12.97
2023-03-13T18:53:44.783Z,12.93
2023-03-13T18:56:19.076Z,12.84
2023-03-13T18:58:50.520Z,12.83
2023-03-13T19:01:20.888Z,12.79
2023-03-13T19:03:49.105Z,12.71
2023-03-13T19:06:20.511Z,12.69
2023-03-13T19:08:48.864Z,12.55
2023-03-13T19:11:17.281Z,12.43
2023-03-13T19:13:44.811Z,12.37
2023-03-13T19:16:17.789Z,12.31
2023-03-13T19:18:46.694Z,12.41
2023-03-13T19:21:19.653Z,12.50
2023-03-13T19:23:47.753Z,12.44
2023-03-13T19:26:23.514Z,12.55
2023-03-13T19:28:51.096Z,12.62
2023-03-13T19:31:19.969Z,12.63
2023-03-13T19:33:47.863Z,12.67
2023-03-13T19:36:16.622Z,12.70
2023-03-13T19:38:44.963Z,12.67
2023-03-13T19:41:13.916Z,12.72
2023-03-13T19:43:42.195Z,12.59
2023-03-13T19:46:24.112Z,12.60
2023-03-13T19:48:54.201Z,12.46
2023-03-13T19:51:22.129Z,12.49
2023-03-13T19:53:50.075Z,12.44
2023-03-13T19:56:20.589Z,12.43
2023-03-13T19:58:49.321Z,12.39
2023-03-13T20:01:18.149Z,12.42
2023-03-13T20:03:47.348Z,12.36
2023-03-13T20:06:18.004Z,12.43
2023-03-13T20:08:46.759Z,12.39
2023-03-13T20:11:15.335Z,12.32
2023-03-13T20:13:43.290Z,12.26
2023-03-13T20:16:11.796Z,12.22
2023-03-13T20:18:39.753Z,12.11
2023-03-13T20:21:08.654Z,12.08
2023-03-13T20:23:36.199Z,12.04
2023-03-13T20:26:05.810Z,11.99
2023-03-13T20:28:33.309Z,11.98
2023-03-13T20:31:01.609Z,12.03
2023-03-13T20:33:29.222Z,11.99
2023-03-13T20:36:00.815Z,11.94
2023-03-13T20:38:30.190Z,11.95
2023-03-13T20:40:58.042Z,11.92
2023-03-13T20:43:26.079Z,11.83
2023-03-13T20:45:53.957Z,11.87
2023-03-13T20:48:21.863Z,11.82
2023-03-13T20:50:52.096Z,11.78
2023-03-13T20:53:22.537Z,11.72
2023-03-13T20:55:51.802Z,11.70
2023-03-13T20:58:20.498Z,11.67
2023-03-13T21:00:49.223Z,11.61
2023-03-13T21:03:17.319Z,11.57
2023-03-13T21:05:45.571Z,11.58
2023-03-13T21:08:13.610Z,11.55
2023-03-13T21:10:42.840Z,11.50
2023-03-13T21:13:11.914Z,11.52
2023-03-13T21:15:40.416Z,11.56
2023-03-13T21:18:08.386Z,11.49
2023-03-13T21:20:35.895Z,11.49
2023-03-13T21:23:03.435Z,11.41
2023-03-13T21:25:31.014Z,11.52
2023-03-13T21:27:58.587Z,11.49
2023-03-13T21:30:27.525Z,11.46
2023-03-13T21:32:55.290Z,11.44
2023-03-13T21:35:23.264Z,11.39
2023-03-13T21:37:50.842Z,11.41
2023-03-13T21:40:18.589Z,11.42
2023-03-13T21:42:46.143Z,11.30
2023-03-13T21:45:13.737Z,11.37
2023-03-13T21:47:42.622Z,11.38
2023-03-13T21:50:11.456Z,11.46
2023-03-13T21:52:42.211Z,11.43
2023-03-13T21:55:12.452Z,11.41
2023-03-13T21:57:40.731Z,11.45
2023-03-13T22:00:10.131Z,11.33
2023-03-13T22:02:38.240Z,11.43
2023-03-13T22:05:09.002Z,11.40
2023-03-13T22:07:37.198Z,11.52
2023-03-13T22:10:05.201Z,11.46
2023-03-13T22:12:32.699Z,11.52
2023-03-13T22:15:00.223Z,11.30
2023-03-13T22:17:27.772Z,11.40
2023-03-13T22:19:55.370Z,11.31
2023-03-13T22:22:24.312Z,11.24
2023-03-13T22:24:54.042Z,11.18
2023-03-13T22:27:23.266Z,11.09
2023-03-13T22:29:51.043Z,11.08
2023-03-13T22:32:18.648Z,11.07
2023-03-13T22:34:48.015Z,11.03
2023-03-13T22:37:15.742Z,10.96
2023-03-13T22:39:44.660Z,10.99
2023-03-13T22:42:12.426Z,11.04
2023-03-13T22:44:40.021Z,11.05
2023-03-13T22:47:07.578Z,11.00
2023-03-13T22:49:35.188Z,10.96
2023-03-13T22:52:02.806Z,10.94
2023-03-13T22:54:30.645Z,10.94
2023-03-13T22:56:59.537Z,10.99
2023-03-13T22:59:27.150Z,10.98
2023-03-13T23:01:54.731Z,11.08
2023-03-13T23:04:22.362Z,11.08
2023-03-13T23:06:49.918Z,11.12
2023-03-13T23:09:17.507Z,11.08
2023-03-13T23:11:45.031Z,11.12
2023-03-13T23:14:13.960Z,11.08
2023-03-13T23:16:41.687Z,11.16
2023-03-13T23:19:09.321Z,11.15
2023-03-13T23:21:36.834Z,11.19
2023-03-13T23:24:04.484Z,11.09
2023-03-13T23:26:32.149Z,11.17
2023-03-13T23:28:59.647Z,11.03
2023-03-13T23:31:28.572Z,11.01
2023-03-13T23:33:56.282Z,11.02
2023-03-13T23:36:23.813Z,11.06
2023-03-13T23:38:53.059Z,11.07
2023-03-13T23:41:21.774Z,11.01
2023-03-13T23:43:49.436Z,11.02
2023-03-13T23:46:17.797Z,11.06
2023-03-13T23:48:46.701Z,11.07
2023-03-13T23:51:14.302Z,11.04
2023-03-13T23:53:43.438Z,11.00
2023-03-13T23:56:11.634Z,11.04
2023-03-13T23:58:39.486Z,11.11
